sensor_id;sensor_type;location;lat;lon;timestamp;P1;durP1;ratioP1;P2;durP2;ratioP2
6661;SDS011;3367;48.714;8.994;2022-11-06T00:00:34;2.33;;;2.13;;
6661;SDS011;3367;48.714;8.994;2022-11-06T00:03:01;7.90;;;2.40;;
6661;SDS011;3367;48.714;8.994;2022-11-06T00:05:28;2.73;;;1.93;;
6661;SDS011;3367;48.714;8.994;2022-11-06T00:08:13;8.43;;;3.33;;
6661;SDS011;3367;48.714;8.994;2022-11-06T00:10:40;9.30;;;2.80;;
6661;SDS011;3367;48.714;8.994;2022-11-06T00:13:08;4.27;;;2.63;;
6661;SDS011;3367;48.714;8.994;2022-11-06T00:15:34;11.23;;;3.07;;
6661;SDS011;3367;48.714;8.994;2022-11-06T00:18:01;3.30;;;2.80;;
6661;SDS011;3367;48.714;8.994;2022-11-06T00:20:28;2.70;;;2.10;;
6661;SDS011;3367;48.714;8.994;2022-11-06T00:22:55;5.27;;;2.13;;
6661;SDS011;3367;48.714;8.994;2022-11-06T00:25:21;9.70;;;3.50;;
6661;SDS011;3367;48.714;8.994;2022-11-06T00:27:48;6.93;;;2.53;;
6661;SDS011;3367;48.714;8.994;2022-11-06T00:30:16;6.83;;;2.77;;
6661;SDS011;3367;48.714;8.994;2022-11-06T00:32:44;6.20;;;2.33;;
6661;SDS011;3367;48.714;8.994;2022-11-06T00:35:11;5.33;;;3.50;;
6661;SDS011;3367;48.714;8.994;2022-11-06T00:37:38;4.53;;;2.90;;
6661;SDS011;3367;48.714;8.994;2022-11-06T00:40:05;8.50;;;2.93;;
6661;SDS011;3367;48.714;8.994;2022-11-06T00:42:32;9.43;;;3.43;;
6661;SDS011;3367;48.714;8.994;2022-11-06T00:44:59;4.83;;;3.13;;
6661;SDS011;3367;48.714;8.994;2022-11-06T00:47:27;3.97;;;3.33;;
6661;SDS011;3367;48.714;8.994;2022-11-06T00:49:54;3.00;;;1.90;;
6661;SDS011;3367;48.714;8.994;2022-11-06T00:52:20;6.60;;;2.07;;
6661;SDS011;3367;48.714;8.994;2022-11-06T00:54:47;3.27;;;1.97;;
6661;SDS011;3367;48.714;8.994;2022-11-06T00:57:14;2.77;;;1.73;;
6661;SDS011;3367;48.714;8.994;2022-11-06T00:59:41;4.23;;;2.50;;
6661;SDS011;3367;48.714;8.994;2022-11-06T01:02:07;3.20;;;2.27;;
6661;SDS011;3367;48.714;8.994;2022-11-06T01:04:35;5.93;;;2.77;;
6661;SDS011;3367;48.714;8.994;2022-11-06T01:07:02;2.83;;;1.83;;
6661;SDS011;3367;48.714;8.994;2022-11-06T01:09:29;4.40;;;3.33;;
6661;SDS011;3367;48.714;8.994;2022-11-06T01:11:57;4.53;;;2.53;;
6661;SDS011;3367;48.714;8.994;2022-11-06T01:14:25;3.37;;;2.03;;
6661;SDS011;3367;48.714;8.994;2022-11-06T01:16:52;5.30;;;2.70;;
6661;SDS011;3367;48.714;8.994;2022-11-06T01:19:19;2.27;;;1.50;;
6661;SDS011;3367;48.714;8.994;2022-11-06T01:21:49;2.53;;;2.03;;
6661;SDS011;3367;48.714;8.994;2022-11-06T01:24:18;7.87;;;3.03;;
6661;SDS011;3367;48.714;8.994;2022-11-06T01:26:47;3.53;;;1.87;;
6661;SDS011;3367;48.714;8.994;2022-11-06T01:29:14;5.83;;;2.20;;
6661;SDS011;3367;48.714;8.994;2022-11-06T01:31:42;3.30;;;3.00;;
6661;SDS011;3367;48.714;8.994;2022-11-06T01:34:09;2.30;;;2.00;;
6661;SDS011;3367;48.714;8.994;2022-11-06T01:36:37;3.70;;;2.80;;
6661;SDS011;3367;48.714;8.994;2022-11-06T01:39:06;5.00;;;2.40;;
6661;SDS011;3367;48.714;8.994;2022-11-06T01:41:34;3.97;;;2.33;;
6661;SDS011;3367;48.714;8.994;2022-11-06T01:44:04;5.70;;;3.23;;
6661;SDS011;3367;48.714;8.994;2022-11-06T01:46:32;10.13;;;3.10;;
6661;SDS011;3367;48.714;8.994;2022-11-06T01:49:01;5.70;;;2.20;;
6661;SDS011;3367;48.714;8.994;2022-11-06T01:51:31;2.87;;;2.00;;
6661;SDS011;3367;48.714;8.994;2022-11-06T01:54:01;3.30;;;2.43;;
6661;SDS011;3367;48.714;8.994;2022-11-06T01:56:32;4.30;;;2.63;;
6661;SDS011;3367;48.714;8.994;2022-11-06T01:59:00;4.20;;;2.03;;
6661;SDS011;3367;48.714;8.994;2022-11-06T02:01:28;9.20;;;2.73;;
6661;SDS011;3367;48.714;8.994;2022-11-06T02:03:56;2.70;;;1.90;;
6661;SDS011;3367;48.714;8.994;2022-11-06T02:06:26;4.47;;;2.10;;
6661;SDS011;3367;48.714;8.994;2022-11-06T02:08:53;5.87;;;2.67;;
6661;SDS011;3367;48.714;8.994;2022-11-06T02:11:20;2.73;;;2.17;;
6661;SDS011;3367;48.714;8.994;2022-11-06T02:16:35;3.53;;;1.67;;
6661;SDS011;3367;48.714;8.994;2022-11-06T02:19:13;5.83;;;2.40;;
6661;SDS011;3367;48.714;8.994;2022-11-06T02:21:55;7.47;;;2.53;;
6661;SDS011;3367;48.714;8.994;2022-11-06T02:24:44;5.37;;;2.03;;
6661;SDS011;3367;48.714;8.994;2022-11-06T02:27:27;16.53;;;2.93;;
6661;SDS011;3367;48.714;8.994;2022-11-06T02:29:55;5.47;;;2.33;;
6661;SDS011;3367;48.714;8.994;2022-11-06T02:32:27;5.10;;;2.10;;
6661;SDS011;3367;48.714;8.994;2022-11-06T02:34:59;3.23;;;2.13;;
6661;SDS011;3367;48.714;8.994;2022-11-06T02:37:35;2.97;;;2.50;;
6661;SDS011;3367;48.714;8.994;2022-11-06T02:40:05;6.00;;;3.00;;
6661;SDS011;3367;48.714;8.994;2022-11-06T02:42:37;4.87;;;2.37;;
6661;SDS011;3367;48.714;8.994;2022-11-06T02:45:06;5.63;;;2.23;;
6661;SDS011;3367;48.714;8.994;2022-11-06T02:47:36;4.63;;;2.23;;
6661;SDS011;3367;48.714;8.994;2022-11-06T02:50:05;5.60;;;2.00;;
6661;SDS011;3367;48.714;8.994;2022-11-06T02:52:36;5.10;;;2.20;;
6661;SDS011;3367;48.714;8.994;2022-11-06T02:55:06;4.67;;;1.93;;
6661;SDS011;3367;48.714;8.994;2022-11-06T02:57:37;10.93;;;2.67;;
6661;SDS011;3367;48.714;8.994;2022-11-06T03:00:10;3.83;;;1.37;;
6661;SDS011;3367;48.714;8.994;2022-11-06T03:02:40;4.00;;;1.63;;
6661;SDS011;3367;48.714;8.994;2022-11-06T03:05:10;4.37;;;2.00;;
6661;SDS011;3367;48.714;8.994;2022-11-06T03:07:43;2.00;;;1.50;;
6661;SDS011;3367;48.714;8.994;2022-11-06T03:10:15;2.90;;;1.70;;
6661;SDS011;3367;48.714;8.994;2022-11-06T03:12:47;6.67;;;2.50;;
6661;SDS011;3367;48.714;8.994;2022-11-06T03:15:19;2.83;;;2.10;;
6661;SDS011;3367;48.714;8.994;2022-11-06T03:17:54;3.90;;;2.30;;
6661;SDS011;3367;48.714;8.994;2022-11-06T03:20:28;3.40;;;1.90;;
6661;SDS011;3367;48.714;8.994;2022-11-06T03:23:01;6.87;;;1.73;;
6661;SDS011;3367;48.714;8.994;2022-11-06T03:25:34;4.90;;;2.97;;
6661;SDS011;3367;48.714;8.994;2022-11-06T03:28:09;6.40;;;1.57;;
6661;SDS011;3367;48.714;8.994;2022-11-06T03:30:41;1.93;;;1.80;;
6661;SDS011;3367;48.714;8.994;2022-11-06T03:33:15;3.23;;;1.37;;
6661;SDS011;3367;48.714;8.994;2022-11-06T03:35:46;5.87;;;1.67;;
6661;SDS011;3367;48.714;8.994;2022-11-06T03:38:17;8.13;;;1.67;;
6661;SDS011;3367;48.714;8.994;2022-11-06T03:40:50;7.20;;;2.10;;
6661;SDS011;3367;48.714;8.994;2022-11-06T03:43:22;2.20;;;2.00;;
6661;SDS011;3367;48.714;8.994;2022-11-06T03:45:52;3.57;;;1.43;;
6661;SDS011;3367;48.714;8.994;2022-11-06T03:48:20;4.97;;;1.53;;
6661;SDS011;3367;48.714;8.994;2022-11-06T03:50:55;3.40;;;2.70;;
6661;SDS011;3367;48.714;8.994;2022-11-06T03:53:26;5.20;;;1.37;;
6661;SDS011;3367;48.714;8.994;2022-11-06T03:55:56;1.67;;;1.50;;
6661;SDS011;3367;48.714;8.994;2022-11-06T03:58:30;5.13;;;2.50;;
6661;SDS011;3367;48.714;8.994;2022-11-06T04:01:02;4.33;;;1.90;;
6661;SDS011;3367;48.714;8.994;2022-11-06T04:03:31;3.97;;;2.37;;
6661;SDS011;3367;48.714;8.994;2022-11-06T04:06:02;2.97;;;1.20;;
6661;SDS011;3367;48.714;8.994;2022-11-06T04:08:35;1.50;;;1.40;;
6661;SDS011;3367;48.714;8.994;2022-11-06T04:11:21;6.33;;;2.20;;
6661;SDS011;3367;48.714;8.994;2022-11-06T04:14:10;3.87;;;1.80;;
6661;SDS011;3367;48.714;8.994;2022-11-06T04:16:40;6.20;;;2.30;;
6661;SDS011;3367;48.714;8.994;2022-11-06T04:19:12;3.50;;;2.10;;
6661;SDS011;3367;48.714;8.994;2022-11-06T04:21:43;4.00;;;1.70;;
6661;SDS011;3367;48.714;8.994;2022-11-06T04:24:25;1.50;;;1.40;;
6661;SDS011;3367;48.714;8.994;2022-11-06T04:27:17;2.00;;;1.90;;
6661;SDS011;3367;48.714;8.994;2022-11-06T04:32:41;3.20;;;1.57;;
6661;SDS011;3367;48.714;8.994;2022-11-06T04:35:30;3.03;;;1.60;;
6661;SDS011;3367;48.714;8.994;2022-11-06T04:38:07;1.97;;;1.20;;
6661;SDS011;3367;48.714;8.994;2022-11-06T04:40:40;2.23;;;1.43;;
6661;SDS011;3367;48.714;8.994;2022-11-06T04:43:12;6.20;;;2.03;;
6661;SDS011;3367;48.714;8.994;2022-11-06T04:45:48;3.67;;;1.43;;
6661;SDS011;3367;48.714;8.994;2022-11-06T04:48:18;2.30;;;2.10;;
6661;SDS011;3367;48.714;8.994;2022-11-06T04:50:47;1.67;;;1.57;;
6661;SDS011;3367;48.714;8.994;2022-11-06T04:53:16;10.63;;;1.87;;
6661;SDS011;3367;48.714;8.994;2022-11-06T04:55:45;1.67;;;1.17;;
6661;SDS011;3367;48.714;8.994;2022-11-06T04:58:14;2.70;;;1.47;;
6661;SDS011;3367;48.714;8.994;2022-11-06T05:00:41;2.13;;;2.03;;
6661;SDS011;3367;48.714;8.994;2022-11-06T05:03:13;4.57;;;2.60;;
6661;SDS011;3367;48.714;8.994;2022-11-06T05:05:40;1.40;;;1.00;;
6661;SDS011;3367;48.714;8.994;2022-11-06T05:08:08;2.23;;;2.10;;
6661;SDS011;3367;48.714;8.994;2022-11-06T05:10:38;1.90;;;1.37;;
6661;SDS011;3367;48.714;8.994;2022-11-06T05:13:05;3.57;;;2.07;;
6661;SDS011;3367;48.714;8.994;2022-11-06T05:15:32;1.43;;;1.30;;
6661;SDS011;3367;48.714;8.994;2022-11-06T05:17:58;2.60;;;1.73;;
6661;SDS011;3367;48.714;8.994;2022-11-06T05:20:26;3.80;;;1.50;;
6661;SDS011;3367;48.714;8.994;2022-11-06T05:22:53;2.33;;;1.10;;
6661;SDS011;3367;48.714;8.994;2022-11-06T05:25:22;1.90;;;1.57;;
6661;SDS011;3367;48.714;8.994;2022-11-06T05:27:49;7.00;;;1.37;;
6661;SDS011;3367;48.714;8.994;2022-11-06T05:30:15;3.33;;;2.60;;
6661;SDS011;3367;48.714;8.994;2022-11-06T05:32:42;1.90;;;1.80;;
6661;SDS011;3367;48.714;8.994;2022-11-06T05:35:09;1.50;;;1.40;;
6661;SDS011;3367;48.714;8.994;2022-11-06T05:37:37;4.60;;;1.70;;
6661;SDS011;3367;48.714;8.994;2022-11-06T05:40:04;2.27;;;1.43;;
6661;SDS011;3367;48.714;8.994;2022-11-06T05:42:32;0.80;;;0.77;;
6661;SDS011;3367;48.714;8.994;2022-11-06T05:44:59;1.00;;;0.67;;
6661;SDS011;3367;48.714;8.994;2022-11-06T05:47:27;2.67;;;0.80;;
6661;SDS011;3367;48.714;8.994;2022-11-06T05:49:53;1.87;;;1.47;;
6661;SDS011;3367;48.714;8.994;2022-11-06T05:52:20;1.50;;;1.23;;
6661;SDS011;3367;48.714;8.994;2022-11-06T05:54:48;4.07;;;2.20;;
6661;SDS011;3367;48.714;8.994;2022-11-06T05:57:15;1.33;;;0.80;;
6661;SDS011;3367;48.714;8.994;2022-11-06T05:59:42;4.00;;;1.70;;
6661;SDS011;3367;48.714;8.994;2022-11-06T06:02:09;1.97;;;1.33;;
6661;SDS011;3367;48.714;8.994;2022-11-06T06:04:36;1.63;;;1.00;;
6661;SDS011;3367;48.714;8.994;2022-11-06T06:07:02;1.50;;;0.87;;
6661;SDS011;3367;48.714;8.994;2022-11-06T06:09:29;2.53;;;1.07;;
6661;SDS011;3367;48.714;8.994;2022-11-06T06:11:57;4.60;;;1.40;;
6661;SDS011;3367;48.714;8.994;2022-11-06T06:14:24;1.23;;;0.90;;
6661;SDS011;3367;48.714;8.994;2022-11-06T06:16:50;1.07;;;0.90;;
6661;SDS011;3367;48.714;8.994;2022-11-06T06:19:17;2.73;;;1.03;;
6661;SDS011;3367;48.714;8.994;2022-11-06T06:21:44;0.80;;;0.80;;
6661;SDS011;3367;48.714;8.994;2022-11-06T06:24:10;7.73;;;1.37;;
6661;SDS011;3367;48.714;8.994;2022-11-06T06:26:37;2.37;;;1.23;;
6661;SDS011;3367;48.714;8.994;2022-11-06T06:29:05;4.73;;;2.07;;
6661;SDS011;3367;48.714;8.994;2022-11-06T06:31:32;2.70;;;1.17;;
6661;SDS011;3367;48.714;8.994;2022-11-06T06:33:59;1.90;;;1.40;;
6661;SDS011;3367;48.714;8.994;2022-11-06T06:36:25;1.33;;;1.23;;
6661;SDS011;3367;48.714;8.994;2022-11-06T06:38:52;1.63;;;1.27;;
6661;SDS011;3367;48.714;8.994;2022-11-06T06:41:19;5.90;;;1.63;;
6661;SDS011;3367;48.714;8.994;2022-11-06T06:43:46;3.40;;;1.50;;
6661;SDS011;3367;48.714;8.994;2022-11-06T06:46:15;1.17;;;1.03;;
6661;SDS011;3367;48.714;8.994;2022-11-06T06:48:43;2.90;;;1.57;;
6661;SDS011;3367;48.714;8.994;2022-11-06T06:51:09;3.10;;;1.40;;
6661;SDS011;3367;48.714;8.994;2022-11-06T06:53:36;5.30;;;1.70;;
6661;SDS011;3367;48.714;8.994;2022-11-06T06:56:03;3.10;;;2.80;;
6661;SDS011;3367;48.714;8.994;2022-11-06T06:58:30;2.30;;;1.70;;
6661;SDS011;3367;48.714;8.994;2022-11-06T07:00:58;6.07;;;1.93;;
6661;SDS011;3367;48.714;8.994;2022-11-06T07:03:27;2.20;;;1.50;;
6661;SDS011;3367;48.714;8.994;2022-11-06T07:05:55;2.13;;;1.70;;
6661;SDS011;3367;48.714;8.994;2022-11-06T07:08:22;2.20;;;1.30;;
6661;SDS011;3367;48.714;8.994;2022-11-06T07:10:49;2.97;;;2.17;;
6661;SDS011;3367;48.714;8.994;2022-11-06T07:13:16;3.97;;;1.30;;
6661;SDS011;3367;48.714;8.994;2022-11-06T07:15:42;3.17;;;1.07;;
6661;SDS011;3367;48.714;8.994;2022-11-06T07:18:09;1.83;;;1.20;;
6661;SDS011;3367;48.714;8.994;2022-11-06T07:20:37;1.53;;;1.30;;
6661;SDS011;3367;48.714;8.994;2022-11-06T07:23:04;2.07;;;1.77;;
6661;SDS011;3367;48.714;8.994;2022-11-06T07:25:32;1.97;;;1.50;;
6661;SDS011;3367;48.714;8.994;2022-11-06T07:27:59;7.37;;;2.00;;
6661;SDS011;3367;48.714;8.994;2022-11-06T07:30:27;4.20;;;2.03;;
6661;SDS011;3367;48.714;8.994;2022-11-06T07:32:54;3.33;;;2.37;;
6661;SDS011;3367;48.714;8.994;2022-11-06T07:35:21;7.03;;;1.80;;
6661;SDS011;3367;48.714;8.994;2022-11-06T07:37:49;2.27;;;1.43;;
6661;SDS011;3367;48.714;8.994;2022-11-06T07:40:16;3.60;;;1.57;;
6661;SDS011;3367;48.714;8.994;2022-11-06T07:42:43;3.57;;;1.57;;
6661;SDS011;3367;48.714;8.994;2022-11-06T07:45:09;7.07;;;2.93;;
6661;SDS011;3367;48.714;8.994;2022-11-06T07:47:36;4.20;;;1.63;;
6661;SDS011;3367;48.714;8.994;2022-11-06T07:50:03;2.60;;;1.57;;
6661;SDS011;3367;48.714;8.994;2022-11-06T07:52:30;5.27;;;2.97;;
6661;SDS011;3367;48.714;8.994;2022-11-06T07:54:59;3.30;;;2.27;;
6661;SDS011;3367;48.714;8.994;2022-11-06T07:57:26;3.83;;;1.87;;
6661;SDS011;3367;48.714;8.994;2022-11-06T07:59:52;5.23;;;2.57;;
6661;SDS011;3367;48.714;8.994;2022-11-06T08:02:19;8.63;;;3.20;;
6661;SDS011;3367;48.714;8.994;2022-11-06T08:04:46;7.83;;;2.30;;
6661;SDS011;3367;48.714;8.994;2022-11-06T08:07:12;5.93;;;2.40;;
6661;SDS011;3367;48.714;8.994;2022-11-06T08:09:39;3.93;;;1.53;;
6661;SDS011;3367;48.714;8.994;2022-11-06T08:12:08;3.97;;;2.13;;
6661;SDS011;3367;48.714;8.994;2022-11-06T08:14:34;2.97;;;2.33;;
6661;SDS011;3367;48.714;8.994;2022-11-06T08:17:01;2.17;;;1.13;;
6661;SDS011;3367;48.714;8.994;2022-11-06T08:19:28;2.70;;;1.57;;
6661;SDS011;3367;48.714;8.994;2022-11-06T08:21:54;5.80;;;1.70;;
6661;SDS011;3367;48.714;8.994;2022-11-06T08:24:21;8.63;;;2.17;;
6661;SDS011;3367;48.714;8.994;2022-11-06T08:26:48;2.90;;;2.00;;
6661;SDS011;3367;48.714;8.994;2022-11-06T08:29:16;3.87;;;1.90;;
6661;SDS011;3367;48.714;8.994;2022-11-06T08:31:43;3.77;;;1.90;;
6661;SDS011;3367;48.714;8.994;2022-11-06T08:34:10;4.90;;;1.87;;
6661;SDS011;3367;48.714;8.994;2022-11-06T08:36:37;4.23;;;1.97;;
6661;SDS011;3367;48.714;8.994;2022-11-06T08:39:05;5.53;;;1.60;;
6661;SDS011;3367;48.714;8.994;2022-11-06T08:41:32;4.50;;;2.80;;
6661;SDS011;3367;48.714;8.994;2022-11-06T08:43:59;3.93;;;1.83;;
6661;SDS011;3367;48.714;8.994;2022-11-06T08:46:27;8.03;;;2.03;;
6661;SDS011;3367;48.714;8.994;2022-11-06T08:48:54;3.63;;;2.03;;
6661;SDS011;3367;48.714;8.994;2022-11-06T08:51:21;3.20;;;1.83;;
6661;SDS011;3367;48.714;8.994;2022-11-06T08:53:47;2.60;;;2.10;;
6661;SDS011;3367;48.714;8.994;2022-11-06T08:56:14;3.50;;;2.40;;
6661;SDS011;3367;48.714;8.994;2022-11-06T08:58:41;5.23;;;2.30;;
6661;SDS011;3367;48.714;8.994;2022-11-06T09:01:08;4.23;;;2.07;;
6661;SDS011;3367;48.714;8.994;2022-11-06T09:03:36;4.43;;;1.60;;
6661;SDS011;3367;48.714;8.994;2022-11-06T09:06:03;3.70;;;1.60;;
6661;SDS011;3367;48.714;8.994;2022-11-06T09:08:31;4.00;;;2.57;;
6661;SDS011;3367;48.714;8.994;2022-11-06T09:10:57;2.53;;;1.80;;
6661;SDS011;3367;48.714;8.994;2022-11-06T09:13:24;1.83;;;1.40;;
6661;SDS011;3367;48.714;8.994;2022-11-06T09:15:51;2.73;;;1.60;;
6661;SDS011;3367;48.714;8.994;2022-11-06T09:18:18;1.87;;;1.60;;
6661;SDS011;3367;48.714;8.994;2022-11-06T09:20:46;3.67;;;2.23;;
6661;SDS011;3367;48.714;8.994;2022-11-06T09:23:12;4.10;;;2.23;;
6661;SDS011;3367;48.714;8.994;2022-11-06T09:25:39;1.87;;;1.63;;
6661;SDS011;3367;48.714;8.994;2022-11-06T09:28:06;2.43;;;1.33;;
6661;SDS011;3367;48.714;8.994;2022-11-06T09:30:33;1.57;;;0.80;;
6661;SDS011;3367;48.714;8.994;2022-11-06T09:33:00;3.73;;;1.73;;
6661;SDS011;3367;48.714;8.994;2022-11-06T09:35:29;6.77;;;2.47;;
6661;SDS011;3367;48.714;8.994;2022-11-06T09:38:00;1.70;;;1.23;;
6661;SDS011;3367;48.714;8.994;2022-11-06T09:40:29;2.70;;;1.30;;
6661;SDS011;3367;48.714;8.994;2022-11-06T09:43:00;3.10;;;1.50;;
6661;SDS011;3367;48.714;8.994;2022-11-06T09:45:37;1.57;;;1.20;;
6661;SDS011;3367;48.714;8.994;2022-11-06T09:48:06;2.40;;;1.73;;
6661;SDS011;3367;48.714;8.994;2022-11-06T09:50:42;2.73;;;2.30;;
6661;SDS011;3367;48.714;8.994;2022-11-06T09:53:16;3.37;;;2.03;;
6661;SDS011;3367;48.714;8.994;2022-11-06T09:55:47;5.13;;;2.37;;
6661;SDS011;3367;48.714;8.994;2022-11-06T09:58:15;4.67;;;1.93;;
6661;SDS011;3367;48.714;8.994;2022-11-06T10:00:47;11.70;;;4.53;;
6661;SDS011;3367;48.714;8.994;2022-11-06T10:03:17;4.00;;;2.53;;
6661;SDS011;3367;48.714;8.994;2022-11-06T10:05:50;1.67;;;1.50;;
6661;SDS011;3367;48.714;8.994;2022-11-06T10:08:20;6.60;;;2.60;;
6661;SDS011;3367;48.714;8.994;2022-11-06T10:10:55;1.83;;;1.20;;
6661;SDS011;3367;48.714;8.994;2022-11-06T10:13:40;2.00;;;1.33;;
6661;SDS011;3367;48.714;8.994;2022-11-06T10:16:20;2.57;;;1.30;;
6661;SDS011;3367;48.714;8.994;2022-11-06T10:19:00;1.83;;;1.23;;
6661;SDS011;3367;48.714;8.994;2022-11-06T10:21:38;1.27;;;1.00;;
6661;SDS011;3367;48.714;8.994;2022-11-06T10:24:17;3.17;;;1.43;;
6661;SDS011;3367;48.714;8.994;2022-11-06T10:26:50;1.60;;;1.20;;
6661;SDS011;3367;48.714;8.994;2022-11-06T10:29:23;1.90;;;1.30;;
6661;SDS011;3367;48.714;8.994;2022-11-06T10:32:07;4.40;;;2.37;;
6661;SDS011;3367;48.714;8.994;2022-11-06T10:34:57;1.33;;;1.23;;
6661;SDS011;3367;48.714;8.994;2022-11-06T10:37:28;4.00;;;1.27;;
6661;SDS011;3367;48.714;8.994;2022-11-06T10:39:59;2.50;;;1.50;;
6661;SDS011;3367;48.714;8.994;2022-11-06T10:42:30;2.67;;;1.50;;
6661;SDS011;3367;48.714;8.994;2022-11-06T10:45:02;1.80;;;1.70;;
6661;SDS011;3367;48.714;8.994;2022-11-06T10:47:31;0.90;;;0.90;;
6661;SDS011;3367;48.714;8.994;2022-11-06T10:50:03;3.40;;;1.80;;
6661;SDS011;3367;48.714;8.994;2022-11-06T10:52:37;1.43;;;1.27;;
6661;SDS011;3367;48.714;8.994;2022-11-06T10:58:21;1.83;;;1.40;;
6661;SDS011;3367;48.714;8.994;2022-11-06T11:00:52;2.33;;;1.30;;
6661;SDS011;3367;48.714;8.994;2022-11-06T11:03:21;2.63;;;1.20;;
6661;SDS011;3367;48.714;8.994;2022-11-06T11:05:51;2.97;;;1.53;;
6661;SDS011;3367;48.714;8.994;2022-11-06T11:08:33;1.70;;;1.53;;
6661;SDS011;3367;48.714;8.994;2022-11-06T11:11:04;1.70;;;1.50;;
6661;SDS011;3367;48.714;8.994;2022-11-06T11:13:32;1.47;;;1.10;;
6661;SDS011;3367;48.714;8.994;2022-11-06T11:15:58;1.90;;;1.50;;
6661;SDS011;3367;48.714;8.994;2022-11-06T11:18:28;1.30;;;1.20;;
6661;SDS011;3367;48.714;8.994;2022-11-06T11:23:45;0.97;;;0.70;;
6661;SDS011;3367;48.714;8.994;2022-11-06T11:26:31;1.67;;;0.90;;
6661;SDS011;3367;48.714;8.994;2022-11-06T11:28:59;0.60;;;0.60;;
6661;SDS011;3367;48.714;8.994;2022-11-06T11:31:36;0.90;;;0.70;;
6661;SDS011;3367;48.714;8.994;2022-11-06T11:34:04;0.73;;;0.73;;
6661;SDS011;3367;48.714;8.994;2022-11-06T11:36:47;1.93;;;1.73;;
6661;SDS011;3367;48.714;8.994;2022-11-06T11:39:17;1.50;;;0.80;;
6661;SDS011;3367;48.714;8.994;2022-11-06T11:41:46;1.70;;;0.90;;
6661;SDS011;3367;48.714;8.994;2022-11-06T11:44:14;0.80;;;0.80;;
6661;SDS011;3367;48.714;8.994;2022-11-06T11:46:44;0.97;;;0.73;;
6661;SDS011;3367;48.714;8.994;2022-11-06T11:49:24;3.10;;;1.60;;
6661;SDS011;3367;48.714;8.994;2022-11-06T11:51:52;0.73;;;0.73;;
6661;SDS011;3367;48.714;8.994;2022-11-06T11:54:21;1.00;;;0.90;;
6661;SDS011;3367;48.714;8.994;2022-11-06T11:56:52;0.63;;;0.57;;
6661;SDS011;3367;48.714;8.994;2022-11-06T11:59:21;0.70;;;0.40;;
6661;SDS011;3367;48.714;8.994;2022-11-06T12:01:50;1.50;;;0.80;;
6661;SDS011;3367;48.714;8.994;2022-11-06T12:04:20;0.90;;;0.67;;
6661;SDS011;3367;48.714;8.994;2022-11-06T12:06:52;0.70;;;0.60;;
6661;SDS011;3367;48.714;8.994;2022-11-06T12:09:21;1.30;;;1.03;;
6661;SDS011;3367;48.714;8.994;2022-11-06T12:11:49;1.97;;;1.10;;
6661;SDS011;3367;48.714;8.994;2022-11-06T12:14:32;1.50;;;0.87;;
6661;SDS011;3367;48.714;8.994;2022-11-06T12:17:04;3.90;;;0.60;;
6661;SDS011;3367;48.714;8.994;2022-11-06T12:19:41;0.93;;;0.60;;
6661;SDS011;3367;48.714;8.994;2022-11-06T12:22:15;1.43;;;0.90;;
6661;SDS011;3367;48.714;8.994;2022-11-06T12:24:46;1.43;;;1.33;;
6661;SDS011;3367;48.714;8.994;2022-11-06T12:27:17;1.20;;;0.93;;
6661;SDS011;3367;48.714;8.994;2022-11-06T12:29:47;1.20;;;0.90;;
6661;SDS011;3367;48.714;8.994;2022-11-06T12:32:19;0.90;;;0.73;;
6661;SDS011;3367;48.714;8.994;2022-11-06T12:34:53;1.67;;;0.63;;
6661;SDS011;3367;48.714;8.994;2022-11-06T12:37:26;1.00;;;0.63;;
6661;SDS011;3367;48.714;8.994;2022-11-06T12:40:02;0.80;;;0.70;;
6661;SDS011;3367;48.714;8.994;2022-11-06T12:42:41;1.00;;;0.80;;
6661;SDS011;3367;48.714;8.994;2022-11-06T12:45:16;1.47;;;0.93;;
6661;SDS011;3367;48.714;8.994;2022-11-06T12:47:44;2.73;;;1.00;;
6661;SDS011;3367;48.714;8.994;2022-11-06T12:50:27;0.50;;;0.37;;
6661;SDS011;3367;48.714;8.994;2022-11-06T12:53:05;0.70;;;0.70;;
6661;SDS011;3367;48.714;8.994;2022-11-06T12:55:45;0.90;;;0.70;;
6661;SDS011;3367;48.714;8.994;2022-11-06T13:01:12;0.83;;;0.50;;
6661;SDS011;3367;48.714;8.994;2022-11-06T13:06:48;3.00;;;1.10;;
6661;SDS011;3367;48.714;8.994;2022-11-06T13:09:27;0.80;;;0.70;;
6661;SDS011;3367;48.714;8.994;2022-11-06T13:11:59;3.80;;;1.00;;
6661;SDS011;3367;48.714;8.994;2022-11-06T13:14:34;0.60;;;0.40;;
6661;SDS011;3367;48.714;8.994;2022-11-06T13:17:06;0.80;;;0.80;;
6661;SDS011;3367;48.714;8.994;2022-11-06T13:19:42;0.60;;;0.47;;
6661;SDS011;3367;48.714;8.994;2022-11-06T13:22:19;0.77;;;0.70;;
6661;SDS011;3367;48.714;8.994;2022-11-06T13:24:52;1.53;;;0.40;;
6661;SDS011;3367;48.714;8.994;2022-11-06T13:27:28;1.17;;;0.60;;
6661;SDS011;3367;48.714;8.994;2022-11-06T13:30:04;1.37;;;0.97;;
6661;SDS011;3367;48.714;8.994;2022-11-06T13:32:39;1.10;;;0.60;;
6661;SDS011;3367;48.714;8.994;2022-11-06T13:35:10;1.07;;;0.53;;
6661;SDS011;3367;48.714;8.994;2022-11-06T13:37:40;0.90;;;0.83;;
6661;SDS011;3367;48.714;8.994;2022-11-06T13:40:24;0.60;;;0.57;;
6661;SDS011;3367;48.714;8.994;2022-11-06T13:42:56;0.80;;;0.60;;
6661;SDS011;3367;48.714;8.994;2022-11-06T13:45:27;0.50;;;0.40;;
6661;SDS011;3367;48.714;8.994;2022-11-06T13:48:05;0.93;;;0.47;;
6661;SDS011;3367;48.714;8.994;2022-11-06T13:50:49;2.23;;;1.77;;
6661;SDS011;3367;48.714;8.994;2022-11-06T13:53:25;0.90;;;0.67;;
6661;SDS011;3367;48.714;8.994;2022-11-06T13:55:58;0.97;;;0.70;;
6661;SDS011;3367;48.714;8.994;2022-11-06T13:58:39;5.03;;;1.10;;
6661;SDS011;3367;48.714;8.994;2022-11-06T14:01:42;1.27;;;0.63;;
6661;SDS011;3367;48.714;8.994;2022-11-06T14:07:19;0.90;;;0.50;;
6661;SDS011;3367;48.714;8.994;2022-11-06T14:09:47;1.10;;;0.73;;
6661;SDS011;3367;48.714;8.994;2022-11-06T14:12:15;0.73;;;0.60;;
6661;SDS011;3367;48.714;8.994;2022-11-06T14:14:45;2.90;;;0.90;;
6661;SDS011;3367;48.714;8.994;2022-11-06T14:17:17;2.10;;;0.80;;
6661;SDS011;3367;48.714;8.994;2022-11-06T14:20:00;1.13;;;0.73;;
6661;SDS011;3367;48.714;8.994;2022-11-06T14:22:29;0.60;;;0.50;;
6661;SDS011;3367;48.714;8.994;2022-11-06T14:24:57;0.60;;;0.40;;
6661;SDS011;3367;48.714;8.994;2022-11-06T14:30:40;1.20;;;0.60;;
6661;SDS011;3367;48.714;8.994;2022-11-06T14:33:55;1.00;;;0.97;;
6661;SDS011;3367;48.714;8.994;2022-11-06T14:36:27;1.70;;;1.00;;
6661;SDS011;3367;48.714;8.994;2022-11-06T14:38:56;1.67;;;1.57;;
6661;SDS011;3367;48.714;8.994;2022-11-06T14:44:23;1.53;;;1.20;;
6661;SDS011;3367;48.714;8.994;2022-11-06T14:47:06;4.70;;;1.97;;
6661;SDS011;3367;48.714;8.994;2022-11-06T14:49:47;5.63;;;1.13;;
6661;SDS011;3367;48.714;8.994;2022-11-06T14:52:16;2.00;;;1.47;;
6661;SDS011;3367;48.714;8.994;2022-11-06T14:54:48;1.33;;;1.23;;
6661;SDS011;3367;48.714;8.994;2022-11-06T14:57:32;1.80;;;1.70;;
6661;SDS011;3367;48.714;8.994;2022-11-06T15:00:14;2.20;;;1.97;;
6661;SDS011;3367;48.714;8.994;2022-11-06T15:02:56;1.53;;;1.40;;
6661;SDS011;3367;48.714;8.994;2022-11-06T15:05:25;3.83;;;1.63;;
6661;SDS011;3367;48.714;8.994;2022-11-06T15:07:53;3.33;;;1.60;;
6661;SDS011;3367;48.714;8.994;2022-11-06T15:13:28;7.20;;;3.63;;
6661;SDS011;3367;48.714;8.994;2022-11-06T15:15:56;4.60;;;2.60;;
6661;SDS011;3367;48.714;8.994;2022-11-06T15:18:28;1.97;;;1.43;;
6661;SDS011;3367;48.714;8.994;2022-11-06T15:20:58;6.80;;;1.80;;
6661;SDS011;3367;48.714;8.994;2022-11-06T15:23:29;1.37;;;1.23;;
6661;SDS011;3367;48.714;8.994;2022-11-06T15:26:01;1.20;;;1.03;;
6661;SDS011;3367;48.714;8.994;2022-11-06T15:28:32;1.00;;;0.90;;
6661;SDS011;3367;48.714;8.994;2022-11-06T15:31:06;1.40;;;1.30;;
6661;SDS011;3367;48.714;8.994;2022-11-06T15:33:44;1.77;;;1.30;;
6661;SDS011;3367;48.714;8.994;2022-11-06T15:36:16;2.33;;;1.33;;
6661;SDS011;3367;48.714;8.994;2022-11-06T15:38:44;2.53;;;2.23;;
6661;SDS011;3367;48.714;8.994;2022-11-06T15:41:12;2.97;;;1.60;;
6661;SDS011;3367;48.714;8.994;2022-11-06T15:43:42;1.33;;;0.57;;
6661;SDS011;3367;48.714;8.994;2022-11-06T15:46:15;1.63;;;1.53;;
6661;SDS011;3367;48.714;8.994;2022-11-06T15:48:44;1.90;;;1.17;;
6661;SDS011;3367;48.714;8.994;2022-11-06T15:51:22;1.63;;;1.10;;
6661;SDS011;3367;48.714;8.994;2022-11-06T15:53:50;5.00;;;2.10;;
6661;SDS011;3367;48.714;8.994;2022-11-06T15:56:18;1.20;;;1.10;;
6661;SDS011;3367;48.714;8.994;2022-11-06T15:59:02;2.43;;;1.10;;
6661;SDS011;3367;48.714;8.994;2022-11-06T16:01:34;1.20;;;0.80;;
6661;SDS011;3367;48.714;8.994;2022-11-06T16:04:02;1.03;;;0.90;;
6661;SDS011;3367;48.714;8.994;2022-11-06T16:06:33;1.03;;;0.77;;